Airfield :
LOGIN :

Register | Disclaimer

   EN    FR    IT 

 










Legend :    VFR   Marginal VFR   IFR   Intensive IFR   Very Intensive IFR
Visi :
Ceiling :
>= 8 km
>= 3000ft
5 to 8 km
1000 to 3000 ft
1500m to 5 km
500 to 1000 ft
800 to 1500m
200 to 500 ft
< 800m
< 200 ft
Symbols :   Thunderstorms  Fog  Heavy snow  Heavy precipitations  Wind > 20 kt
SIGMETs :     Misc.  Thunderstorms  Icing  Turbulence  Mountain Waves  Volcanic Ashes






- Airport Elevation : 325 ft
- IATA code : BES


LFRB - Brest

CURRENT METAR :
  • 221030Z AUTO VRB02KT CAVOK 15/10 Q1024 NOSIG

EXPIRED METARs :
  • 221000Z AUTO VRB02KT CAVOK 14/11 Q1024 NOSIG
  • 220930Z AUTO VRB02KT CAVOK 13/11 Q1024 NOSIG
  • 220900Z AUTO VRB01KT CAVOK 11/10 Q1024 TEMPO 2500 BR
  • 220830Z AUTO 16001KT CAVOK 11/11 Q1024 TEMPO 0800 FG VV///
  • 220800Z AUTO 00000KT 8000 2700 NSC 08/08 Q1024 BECMG 0800 FG VV///

TAF AMD TAF LFRB
Valid from the 22 at 08:00 until the 23 at 12:00 UTC


220829Z 2208/2312 04003KT 6000 SCT025
TEMPO 2208/2210 2500 BR NSC
BECMG 2210/2212 9999 NSW
PROB40
TEMPO 2300/2306 3000 BR
ATIS : +33 2 98 32 02 71



MET'MAP, your aeronautical weather chart ! - Copyright ORBIFLY December 2007 - Disclaimer

ORBIFLY MET'MAP TEAM :

Programming & Development : Alexandra Zaïnal
Concept & Development : Baudouin d'Aumeries
Co-Development & Prog : Marc-Olivier Méhu
Technical & hardware support : Manuel Goepfert

Contact : metmap@orbifly.com




SOURCES & CREDITS :

   NOAA